Fairbanks International, AK

10:25 AM AKST on March 05, 2015 (GMT -0900)
Nenana Municipal | Change Station
CLOSE
Current Station
Airport
Location: Nenana,
Elevation: 361 ft
Nearby Weather Stations

Elev 361 ft 64.55 °N, 149.07 °W | Updated 3 minutes ago

Light Snow
Light Snow Mist
29 °F
Feels Like 22 °F
N
7
Wind Variable Wind from East

Today
High -- | Low -- °F
--% Chance of Precip.
Yesterday
High -- | Low -- °F
Precip. -- in
7:46 AM 6:20 PM
Full, 100% visible
Pressure 29.78 in
Visibility 3.0 miles
Clouds Mostly Cloudy 1100 ft
Overcast 1700 ft
Windchill 22 °F
Dew Point 25 °F
Humidity 85%
Rainfall 0.00 in
Snow Depth Not available.
UV 0 out of 12
Pollen Not available.
Air Quality Not available.
Flu Activity Not available.
SPECI PANN 051922Z AUTO 09006KT 3SM -SN BR BKN011 OVC017 M02/M04 A2978 RMK AO2 P0001 T10171039 TSNO

More Conditions Fewer Conditions

Pressure 29.78 in
Visibility 3.0 miles
Clouds Mostly Cloudy 1100 ft
Overcast 1700 ft
Windchill 22 °F
Dew Point 25 °F
Humidity 85%
Rainfall 0.00 in
Snow Depth Not available.
UV 0 out of 12
Pollen Not available.
Air Quality Not available.
Flu Activity Not available.
SPECI PANN 051922Z AUTO 09006KT 3SM -SN BR BKN011 OVC017 M02/M04 A2978 RMK AO2 P0001 T10171039 TSNO

More Conditions Fewer Conditions

10-Day Weather Forecast

Almanac

Astronomy

Mar. 05, 2015 Rise Set
Actual Time
Civil Twilight
Nautical Twilight
Astronomical Twilight
Moon
Length of Visible Light
Length of Day
Tomorrow will be .
, % of the Moon is Illuminated

Today's Extremes

State Highs State Lows

Community

WunderPhotos

Upload Photos

1,802,915 photos uploaded!

WunderBlogs® & News

Nearby

Air Quality

  Air Quality AQ Index Pollutant
Not available.

Snow Depth

Station Depth Elevation

Earthquake Activity

City Distance Mag. Time & Date
Minimum magnitude displayed is 2.5.

Coastal Water Temperatures

Place Temperature

Nearby Weather Stations